createdAt,value
2022-11-05T00:04:08.655Z,0
2022-11-05T00:09:17.077Z,0
2022-11-05T00:14:25.442Z,0
2022-11-05T00:19:33.875Z,0
2022-11-05T00:24:42.193Z,0
2022-11-05T00:29:50.601Z,0
2022-11-05T00:35:00.006Z,0
2022-11-05T00:40:07.616Z,0
2022-11-05T00:45:15.232Z,0
2022-11-05T00:50:22.767Z,0
2022-11-05T00:55:30.322Z,0
2022-11-05T01:00:37.946Z,0
2022-11-05T01:05:45.432Z,0
2022-11-05T01:10:53.003Z,0
2022-11-05T01:16:00.568Z,0
2022-11-05T01:21:08.170Z,0
2022-11-05T01:26:15.762Z,0
2022-11-05T01:31:23.349Z,0
2022-11-05T01:36:30.936Z,0
2022-11-05T01:41:38.516Z,0
2022-11-05T01:46:46.112Z,0
2022-11-05T01:51:53.737Z,0
2022-11-05T01:57:01.376Z,0
2022-11-05T02:02:08.956Z,0
2022-11-05T02:07:16.646Z,0
2022-11-05T02:12:24.166Z,0
2022-11-05T02:17:31.761Z,0
2022-11-05T02:22:39.352Z,0
2022-11-05T02:27:46.913Z,0
2022-11-05T02:32:54.518Z,0
2022-11-05T02:38:02.124Z,0
2022-11-05T02:43:09.706Z,0
2022-11-05T02:48:17.609Z,0
2022-11-05T02:53:25.499Z,0
2022-11-05T02:58:33.349Z,0
2022-11-05T03:03:41.237Z,0
2022-11-05T03:08:49.106Z,0
2022-11-05T03:13:56.975Z,0
2022-11-05T03:19:04.837Z,0
2022-11-05T03:24:12.763Z,0
2022-11-05T03:29:20.656Z,0
2022-11-05T03:34:28.549Z,0
2022-11-05T03:39:36.475Z,0
2022-11-05T03:44:44.394Z,0
2022-11-05T03:49:52.334Z,0
2022-11-05T03:55:00.919Z,0
2022-11-05T04:00:09.459Z,0
2022-11-05T04:05:18.092Z,0
2022-11-05T04:10:26.628Z,0
2022-11-05T04:15:35.163Z,0
2022-11-05T04:20:43.752Z,0
2022-11-05T04:25:52.433Z,0
2022-11-05T04:31:00.859Z,0
2022-11-05T04:36:09.444Z,0
2022-11-05T04:41:17.999Z,0
2022-11-05T04:46:26.568Z,0
2022-11-05T04:51:35.128Z,0
2022-11-05T04:56:43.687Z,0
2022-11-05T05:01:53.322Z,0
2022-11-05T05:07:01.039Z,0
2022-11-05T05:12:08.750Z,0
2022-11-05T05:17:16.485Z,0
2022-11-05T05:22:24.235Z,0
2022-11-05T05:27:31.890Z,0
2022-11-05T05:32:39.623Z,0
2022-11-05T05:37:47.272Z,0
2022-11-05T05:42:54.964Z,0
2022-11-05T05:48:02.622Z,0
2022-11-05T05:53:10.262Z,0
2022-11-05T05:58:17.875Z,0
2022-11-05T06:03:25.593Z,0
2022-11-05T06:08:33.288Z,0
2022-11-05T06:13:40.953Z,5
2022-11-05T06:18:48.604Z,5
2022-11-05T06:23:56.309Z,11
2022-11-05T06:29:04.066Z,16
2022-11-05T06:34:11.749Z,16
2022-11-05T06:39:19.363Z,22
2022-11-05T06:44:27.084Z,28
2022-11-05T06:49:34.715Z,33
2022-11-05T06:54:42.395Z,39
2022-11-05T06:59:50.121Z,45
2022-11-05T07:04:57.830Z,50
2022-11-05T07:10:05.480Z,50
2022-11-05T07:15:13.448Z,56
2022-11-05T07:20:21.359Z,73
2022-11-05T07:25:29.212Z,78
2022-11-05T07:30:37.118Z,78
2022-11-05T07:35:45.064Z,84
2022-11-05T07:40:52.828Z,90
2022-11-05T07:46:00.712Z,95
2022-11-05T07:51:08.497Z,101
2022-11-05T07:56:16.248Z,101
2022-11-05T08:01:23.960Z,106
2022-11-05T08:06:31.866Z,112
2022-11-05T08:11:39.536Z,118
2022-11-05T08:16:47.262Z,123
2022-11-05T08:21:55.589Z,123
2022-11-05T08:27:03.901Z,129
2022-11-05T08:32:12.211Z,129
2022-11-05T08:37:20.580Z,135
2022-11-05T08:42:28.962Z,135
2022-11-05T08:47:37.100Z,135
2022-11-05T08:52:45.383Z,135
2022-11-05T08:57:53.669Z,135
2022-11-05T09:03:01.931Z,140
2022-11-05T09:08:10.211Z,140
2022-11-05T09:13:18.475Z,140
2022-11-05T09:18:26.717Z,146
2022-11-05T09:23:34.951Z,146
2022-11-05T09:28:44.236Z,146
2022-11-05T09:33:51.644Z,151
2022-11-05T09:38:58.846Z,151
2022-11-05T09:44:06.107Z,151
2022-11-05T09:49:13.282Z,151
2022-11-05T09:54:20.467Z,157
2022-11-05T09:59:27.648Z,157
2022-11-05T10:04:34.852Z,157
2022-11-05T10:09:41.955Z,157
2022-11-05T10:14:49.104Z,157
2022-11-05T10:19:56.241Z,157
2022-11-05T10:25:03.350Z,157
2022-11-05T10:30:10.542Z,157
2022-11-05T10:35:17.714Z,157
2022-11-05T10:40:24.820Z,157
2022-11-05T10:45:31.953Z,157
2022-11-05T10:50:39.088Z,157
2022-11-05T11:00:53.308Z,163
2022-11-05T11:06:00.416Z,174
2022-11-05T11:11:07.479Z,185
2022-11-05T11:21:21.551Z,208
2022-11-05T11:26:28.595Z,191
2022-11-05T11:31:35.629Z,191
2022-11-05T11:36:42.601Z,196
2022-11-05T11:41:49.777Z,219
2022-11-05T11:46:56.837Z,225
2022-11-05T11:52:03.938Z,213
2022-11-05T11:57:11.016Z,180
2022-11-05T12:02:18.151Z,191
2022-11-05T12:07:25.327Z,196
2022-11-05T12:12:32.437Z,196
2022-11-05T12:17:39.542Z,185
2022-11-05T12:22:46.662Z,191
2022-11-05T12:27:53.778Z,174
2022-11-05T12:33:00.835Z,168
2022-11-05T12:38:07.936Z,168
2022-11-05T12:43:14.998Z,168
2022-11-05T12:48:22.329Z,163
2022-11-05T12:53:29.625Z,157
2022-11-05T12:58:36.925Z,163
2022-11-05T13:03:44.247Z,151
2022-11-05T13:08:51.562Z,140
2022-11-05T13:13:58.917Z,129
2022-11-05T13:19:06.233Z,135
2022-11-05T13:24:13.615Z,135
2022-11-05T13:29:21.006Z,123
2022-11-05T13:34:28.346Z,135
2022-11-05T13:39:35.749Z,135
2022-11-05T13:44:43.113Z,129
2022-11-05T13:49:50.468Z,112
2022-11-05T13:54:58.523Z,112
2022-11-05T14:00:05.123Z,101
2022-11-05T14:05:12.182Z,95
2022-11-05T14:10:19.091Z,90
2022-11-05T14:15:26.073Z,84
2022-11-05T14:20:33.131Z,78
2022-11-05T14:25:40.195Z,73
2022-11-05T14:30:47.282Z,67
2022-11-05T14:35:54.370Z,61
2022-11-05T14:41:01.519Z,56
2022-11-05T14:46:08.751Z,50
2022-11-05T14:51:15.888Z,50
2022-11-05T14:56:23.079Z,45
2022-11-05T15:01:30.291Z,39
2022-11-05T15:06:37.497Z,33
2022-11-05T15:11:44.763Z,28
2022-11-05T15:16:51.980Z,22
2022-11-05T15:21:59.269Z,16
2022-11-05T15:27:06.525Z,11
2022-11-05T15:32:13.807Z,5
2022-11-05T15:37:21.050Z,5
2022-11-05T15:42:28.403Z,0
2022-11-05T15:47:35.712Z,0
2022-11-05T16:18:20.356Z,0
2022-11-05T16:23:28.024Z,0
2022-11-05T16:33:43.313Z,0
2022-11-05T16:38:50.965Z,0
2022-11-05T16:43:58.608Z,0
2022-11-05T16:49:06.328Z,0
2022-11-05T16:54:14.092Z,0
2022-11-05T16:59:21.796Z,0
2022-11-05T17:04:29.502Z,0
2022-11-05T17:09:37.297Z,0
2022-11-05T17:14:45.243Z,0
2022-11-05T17:19:53.208Z,0
2022-11-05T17:25:01.225Z,0
2022-11-05T17:30:09.224Z,0
2022-11-05T17:35:17.273Z,0
2022-11-05T17:40:25.928Z,0
2022-11-05T17:45:33.368Z,0
2022-11-05T17:50:41.421Z,0
2022-11-05T17:55:49.544Z,0
2022-11-05T18:00:57.638Z,0
2022-11-05T18:06:05.708Z,0
2022-11-05T18:11:13.817Z,0
2022-11-05T18:16:22.021Z,0
2022-11-05T18:21:30.655Z,0
2022-11-05T18:26:39.349Z,0
2022-11-05T18:31:48.049Z,0
2022-11-05T18:36:56.811Z,0
2022-11-05T18:42:05.499Z,0
2022-11-05T18:47:14.153Z,0
2022-11-05T18:52:22.933Z,0
2022-11-05T18:57:31.505Z,0
2022-11-05T19:02:40.247Z,0
2022-11-05T19:07:48.901Z,0
2022-11-05T19:12:57.716Z,0
2022-11-05T19:18:06.418Z,0
2022-11-05T19:23:15.030Z,0
2022-11-05T19:28:24.806Z,0
2022-11-05T19:33:32.748Z,0
2022-11-05T19:38:40.409Z,0
2022-11-05T19:43:48.174Z,0
2022-11-05T19:48:55.865Z,0
2022-11-05T19:54:03.568Z,0
2022-11-05T19:59:11.347Z,0
2022-11-05T20:04:19.128Z,0
2022-11-05T20:09:26.885Z,0
2022-11-05T20:14:34.644Z,0
2022-11-05T20:19:42.372Z,0
2022-11-05T20:24:50.189Z,0
2022-11-05T20:29:57.909Z,0
2022-11-05T20:35:05.636Z,0
2022-11-05T20:40:13.370Z,0
2022-11-05T20:45:21.173Z,0
2022-11-05T20:50:28.935Z,0
2022-11-05T20:55:36.729Z,0
2022-11-05T21:00:44.415Z,0
2022-11-05T21:05:52.163Z,0
2022-11-05T21:10:59.877Z,0
2022-11-05T21:16:07.651Z,0
2022-11-05T21:21:15.395Z,0
2022-11-05T21:26:23.043Z,0
2022-11-05T21:31:30.744Z,0
2022-11-05T21:36:38.556Z,0
2022-11-05T21:41:46.338Z,0
2022-11-05T21:46:54.136Z,0
2022-11-05T21:52:01.934Z,0
2022-11-05T21:57:09.740Z,0
2022-11-05T22:02:17.546Z,0
2022-11-05T22:07:25.416Z,0
2022-11-05T22:12:33.129Z,0
2022-11-05T22:17:40.919Z,0
2022-11-05T22:22:48.743Z,0
2022-11-05T22:27:56.493Z,0
2022-11-05T22:33:04.163Z,0
2022-11-05T22:38:11.895Z,0
2022-11-05T22:43:19.613Z,0
2022-11-05T22:48:27.571Z,0
2022-11-05T22:53:35.522Z,0
2022-11-05T22:58:43.464Z,0
2022-11-05T23:03:51.437Z,0
2022-11-05T23:08:59.323Z,0
2022-11-05T23:14:07.265Z,0
2022-11-05T23:19:15.204Z,0
2022-11-05T23:24:23.141Z,0
2022-11-05T23:29:31.184Z,0
2022-11-05T23:34:39.079Z,0
2022-11-05T23:39:46.988Z,0
2022-11-05T23:44:54.886Z,0
2022-11-05T23:50:02.787Z,0
2022-11-05T23:55:11.363Z,0
